Time;durP1;ratioP1;P1;durP2;ratioP2;P2;SDS_P1;SDS_P2;PMS_P1;PMS_P2;Temp;Humidity;BMP_temperature;BMP_pressure;BME280_temperature;BME280_humidity;BME280_pressure;Samples;Min_cycle;Max_cycle;Signal;HPM_P1;HPM_P2
2023/03/12 00:00:19;;;;;;;;;;;3.80;99.90;;;;;;5035672;28;19992;-80
2023/03/12 00:02:45;;;;;;;;;;;3.80;1.00;;;;;;5020467;28;19913;-80
2023/03/12 00:05:10;;;;;;;;;;;3.80;96.40;;;;;;5039486;28;19960;-81
2023/03/12 00:07:37;;;;;;;;;;;3.80;99.90;;;;;;5035869;28;20284;-80
2023/03/12 00:10:03;;;;;;;;;;;3.80;99.90;;;;;;5037607;28;19909;-80
2023/03/12 00:12:28;;;;;;;;;;;3.80;99.90;;;;;;5039852;28;19909;-80
2023/03/12 00:14:54;;;;;;;;;;;3.80;99.90;;;;;;5037485;28;20283;-80
2023/03/12 00:17:19;;;;;;;;;;;3.80;99.90;;;;;;5036240;28;19963;-80
2023/03/12 00:19:45;;;;;;;;;;;3.80;99.90;;;;;;5036919;28;19976;-80
2023/03/12 00:22:10;;;;;;;;;;;3.80;99.90;;;;;;5035007;28;19913;-79
2023/03/12 00:24:36;;;;;;;;;;;3.80;99.90;;;;;;5035903;28;20004;-80
2023/03/12 00:27:01;;;;;;;;;;;3.80;1.00;;;;;;5034844;28;19909;-79
2023/03/12 00:29:27;;;;;;;;;;;3.80;1.00;;;;;;5034522;28;20304;-79
2023/03/12 00:31:53;;;;;;;;;;;3.90;1.00;;;;;;5036744;28;19958;-80
2023/03/12 00:34:18;;;;;;;;;;;3.90;99.90;;;;;;5036959;28;20406;-80
2023/03/12 00:36:43;;;;;;;;;;;3.90;23.30;;;;;;5035417;28;19917;-80
2023/03/12 00:39:09;;;;;;;;;;;3.90;98.40;;;;;;5034158;28;19932;-80
2023/03/12 00:41:34;;;;;;;;;;;3.90;99.90;;;;;;5035883;28;19972;-80
2023/03/12 00:44:00;;;;;;;;;;;4.00;99.90;;;;;;5034471;28;20004;-80
2023/03/12 00:46:26;;;;;;;;;;;4.00;1.00;;;;;;5034570;28;20321;-79
2023/03/12 00:48:51;;;;;;;;;;;4.00;1.00;;;;;;5033667;28;19975;-80
2023/03/12 00:51:17;;;;;;;;;;;4.00;1.00;;;;;;5036606;28;19913;-80
2023/03/12 00:53:42;;;;;;;;;;;4.10;1.00;;;;;;5035523;28;20404;-80
2023/03/12 00:56:08;;;;;;;;;;;4.00;1.00;;;;;;5015888;28;19909;-80
2023/03/12 00:58:33;;;;;;;;;;;4.00;1.00;;;;;;5034122;28;19909;-80
2023/03/12 01:00:59;;;;;;;;;;;4.00;1.00;;;;;;5033595;28;19909;-80
2023/03/12 01:03:24;;;;;;;;;;;4.00;1.00;;;;;;5033521;28;20482;-79
2023/03/12 01:05:53;;;;;;;;;;;4.00;1.00;;;;;;5032245;28;20379;-80
2023/03/12 01:08:19;;;;;;;;;;;3.90;1.00;;;;;;5033386;28;20423;-80
2023/03/12 01:10:44;;;;;;;;;;;3.90;1.00;;;;;;5033664;28;19913;-79
2023/03/12 01:13:10;;;;;;;;;;;3.80;1.00;;;;;;5033283;28;19909;-80
2023/03/12 01:15:35;;;;;;;;;;;3.90;1.00;;;;;;5033883;28;19910;-80
2023/03/12 01:18:01;;;;;;;;;;;3.80;1.00;;;;;;5036666;28;20391;-80
2023/03/12 01:20:26;;;;;;;;;;;3.80;1.00;;;;;;5033376;28;19913;-81
2023/03/12 01:22:52;;;;;;;;;;;3.80;1.00;;;;;;5032944;28;20000;-80
2023/03/12 01:25:17;;;;;;;;;;;3.90;1.00;;;;;;5033647;28;19909;-80
2023/03/12 01:27:43;;;;;;;;;;;3.90;1.00;;;;;;5033508;28;19915;-80
2023/03/12 01:30:09;;;;;;;;;;;3.90;1.00;;;;;;5033819;28;20284;-79
2023/03/12 01:32:34;;;;;;;;;;;3.80;1.00;;;;;;5015173;28;19913;-80
2023/03/12 01:35:00;;;;;;;;;;;3.80;1.00;;;;;;5034314;28;19913;-80
2023/03/12 01:37:26;;;;;;;;;;;3.90;1.00;;;;;;5018732;28;19909;-80
2023/03/12 01:39:51;;;;;;;;;;;3.80;1.00;;;;;;5016618;28;19960;-80
2023/03/12 01:42:17;;;;;;;;;;;3.80;1.00;;;;;;5015135;28;19913;-80
2023/03/12 01:44:53;;;;;;;;;;;3.70;1.00;;;;;;5033439;28;19909;-80
2023/03/12 01:47:19;;;;;;;;;;;3.70;1.00;;;;;;5033488;28;20116;-80
2023/03/12 01:49:45;;;;;;;;;;;3.70;1.00;;;;;;5033391;28;20041;-80
2023/03/12 01:52:19;;;;;;;;;;;3.60;4.40;;;;;;5033569;28;19909;-80
2023/03/12 01:54:58;;;;;;;;;;;3.60;1.00;;;;;;5033232;28;19909;-80
2023/03/12 01:57:45;;;;;;;;;;;3.60;99.90;;;;;;5032793;28;19909;-80
2023/03/12 02:00:12;;;;;;;;;;;3.70;99.90;;;;;;5032644;28;19956;-80
2023/03/12 02:02:38;;;;;;;;;;;3.70;2.40;;;;;;5032336;28;19913;-80
2023/03/12 02:05:08;;;;;;;;;;;3.80;1.00;;;;;;5033767;28;19913;-79
2023/03/12 02:07:34;;;;;;;;;;;3.70;1.00;;;;;;5033583;28;19909;-80
2023/03/12 02:09:59;;;;;;;;;;;3.80;1.00;;;;;;5033197;28;19949;-80
2023/03/12 02:12:25;;;;;;;;;;;3.70;1.00;;;;;;5032420;28;19917;-80
2023/03/12 02:14:50;;;;;;;;;;;3.70;1.00;;;;;;5036453;28;19917;-80
2023/03/12 02:17:16;;;;;;;;;;;3.70;1.00;;;;;;5036469;28;19916;-80
2023/03/12 02:19:58;;;;;;;;;;;3.70;1.00;;;;;;5035465;28;20361;-79
2023/03/12 02:22:24;;;;;;;;;;;3.80;1.00;;;;;;5036378;28;19915;-79
2023/03/12 02:25:00;;;;;;;;;;;3.80;1.90;;;;;;5036469;28;19995;-80
2023/03/12 02:27:26;;;;;;;;;;;3.80;1.00;;;;;;5036327;28;19924;-80
2023/03/12 02:29:52;;;;;;;;;;;3.80;1.00;;;;;;5035104;28;19913;-80
2023/03/12 02:32:23;;;;;;;;;;;3.90;1.00;;;;;;5034789;28;20384;-80
2023/03/12 02:34:49;;;;;;;;;;;3.90;1.00;;;;;;5036231;28;19910;-80
2023/03/12 02:37:15;;;;;;;;;;;3.90;1.00;;;;;;5036097;28;19910;-80
2023/03/12 02:39:41;;;;;;;;;;;3.90;1.00;;;;;;5037353;28;19909;-79
2023/03/12 02:42:06;;;;;;;;;;;3.90;1.00;;;;;;5037711;28;19909;-80
2023/03/12 02:44:33;;;;;;;;;;;4.00;1.00;;;;;;5037152;28;19917;-80
2023/03/12 02:47:00;;;;;;;;;;;4.10;1.00;;;;;;5036594;28;20276;-80
2023/03/12 02:49:27;;;;;;;;;;;4.10;1.00;;;;;;5065858;22;19924;-80
2023/03/12 02:51:53;;;;;;;;;;;4.10;1.00;;;;;;5055727;28;19916;-79
2023/03/12 02:54:19;;;;;;;;;;;4.20;1.00;;;;;;5054547;28;20007;-80
2023/03/12 02:56:45;;;;;;;;;;;4.20;1.00;;;;;;5054896;28;19909;-80
2023/03/12 02:59:12;;;;;;;;;;;4.30;1.00;;;;;;5054126;28;19967;-79
2023/03/12 03:01:38;;;;;;;;;;;4.40;1.00;;;;;;5054194;28;19909;-79
2023/03/12 03:04:04;;;;;;;;;;;4.40;1.00;;;;;;5054188;28;19962;-79
2023/03/12 03:06:31;;;;;;;;;;;4.40;1.00;;;;;;5055780;28;19908;-79
2023/03/12 03:08:57;;;;;;;;;;;4.40;1.00;;;;;;5054451;28;20378;-79
2023/03/12 03:11:23;;;;;;;;;;;4.40;99.90;;;;;;5055448;28;19908;-80
2023/03/12 03:13:49;;;;;;;;;;;4.40;99.90;;;;;;5054008;28;19915;-79
2023/03/12 03:16:15;;;;;;;;;;;4.40;99.90;;;;;;5037513;28;19916;-79
2023/03/12 03:18:40;;;;;;;;;;;4.40;99.90;;;;;;5054186;28;20364;-80
2023/03/12 03:21:07;;;;;;;;;;;4.30;99.90;;;;;;5037312;28;19951;-80
2023/03/12 03:23:33;;;;;;;;;;;4.30;99.90;;;;;;5053847;28;19912;-79
2023/03/12 03:25:59;;;;;;;;;;;4.20;1.00;;;;;;5053894;28;19916;-80
2023/03/12 03:28:25;;;;;;;;;;;4.20;1.00;;;;;;5055326;28;19908;-80
2023/03/12 03:31:00;;;;;;;;;;;4.20;1.00;;;;;;5053823;28;19913;-78
2023/03/12 03:33:25;;;;;;;;;;;4.20;1.00;;;;;;5037237;28;19909;-80
2023/03/12 03:35:51;;;;;;;;;;;4.20;1.00;;;;;;5053871;28;19999;-79
2023/03/12 03:38:16;;;;;;;;;;;4.20;1.00;;;;;;5053531;28;19916;-80
2023/03/12 03:40:42;;;;;;;;;;;4.20;1.00;;;;;;5054984;28;19909;-80
2023/03/12 03:43:08;;;;;;;;;;;4.20;99.90;;;;;;5055255;28;20372;-80
2023/03/12 03:45:33;;;;;;;;;;;4.20;1.00;;;;;;5054849;28;19909;-79
2023/03/12 03:47:59;;;;;;;;;;;4.20;99.90;;;;;;5053444;28;19913;-80
2023/03/12 03:50:24;;;;;;;;;;;4.30;1.00;;;;;;5053954;28;19920;-80
2023/03/12 03:52:50;;;;;;;;;;;4.20;1.00;;;;;;5053491;28;20269;-79
2023/03/12 03:55:15;;;;;;;;;;;4.20;1.00;;;;;;5055635;28;19908;-80
2023/03/12 03:57:41;;;;;;;;;;;4.20;1.00;;;;;;5054002;28;19908;-80
2023/03/12 04:00:08;;;;;;;;;;;4.30;1.00;;;;;;5054718;28;19909;-79
2023/03/12 04:02:34;;;;;;;;;;;4.30;1.00;;;;;;5037039;28;20035;-79
2023/03/12 04:04:59;;;;;;;;;;;4.30;1.00;;;;;;5055486;28;19941;-78
2023/03/12 04:07:26;;;;;;;;;;;4.30;99.90;;;;;;5054532;28;19909;-79
2023/03/12 04:09:52;;;;;;;;;;;4.30;99.90;;;;;;5056209;28;20372;-79
2023/03/12 04:12:18;;;;;;;;;;;4.40;99.90;;;;;;5054064;28;19909;-79
2023/03/12 04:14:44;;;;;;;;;;;4.40;99.90;;;;;;5038529;28;19966;-79
2023/03/12 04:17:09;;;;;;;;;;;4.40;99.90;;;;;;5055662;28;20422;-80
2023/03/12 04:19:35;;;;;;;;;;;4.40;99.90;;;;;;5054500;28;19909;-79
2023/03/12 04:22:00;;;;;;;;;;;4.40;99.90;;;;;;5053636;28;19920;-79
2023/03/12 04:24:26;;;;;;;;;;;4.40;99.90;;;;;;5054830;28;20352;-79
2023/03/12 04:26:51;;;;;;;;;;;4.40;99.90;;;;;;5054780;28;19908;-79
2023/03/12 04:29:17;;;;;;;;;;;4.40;99.90;;;;;;5053197;28;20265;-79
2023/03/12 04:31:43;;;;;;;;;;;4.40;99.90;;;;;;5054867;28;20276;-80
2023/03/12 04:34:09;;;;;;;;;;;4.40;99.90;;;;;;5052981;28;20445;-79
2023/03/12 04:36:34;;;;;;;;;;;4.40;1.00;;;;;;5052717;28;19960;-80
2023/03/12 04:39:00;;;;;;;;;;;4.40;99.90;;;;;;5052772;28;19960;-80
2023/03/12 04:41:26;;;;;;;;;;;4.40;99.90;;;;;;5052545;28;19916;-79
2023/03/12 04:43:51;;;;;;;;;;;4.40;99.90;;;;;;5054289;28;20370;-80
2023/03/12 04:46:17;;;;;;;;;;;4.40;1.00;;;;;;5054421;28;20330;-79
2023/03/12 04:48:42;;;;;;;;;;;4.40;1.00;;;;;;5053807;28;20011;-79
2023/03/12 04:51:08;;;;;;;;;;;4.40;99.90;;;;;;5052417;28;19931;-79
2023/03/12 04:53:33;;;;;;;;;;;4.30;1.00;;;;;;5052426;28;19915;-79
2023/03/12 04:55:59;;;;;;;;;;;4.20;1.00;;;;;;5054097;28;19909;-79
2023/03/12 04:58:24;;;;;;;;;;;4.20;1.00;;;;;;5053722;28;19909;-80
2023/03/12 05:00:50;;;;;;;;;;;4.20;99.90;;;;;;5052422;28;19952;-79
2023/03/12 05:03:15;;;;;;;;;;;4.20;1.00;;;;;;5052166;28;20375;-79
2023/03/12 05:05:41;;;;;;;;;;;4.10;58.20;;;;;;5052436;28;20297;-79
2023/03/12 05:08:06;;;;;;;;;;;4.10;1.00;;;;;;5051912;28;19909;-79
2023/03/12 05:10:32;;;;;;;;;;;4.00;99.90;;;;;;5051885;28;19912;-78
2023/03/12 05:12:57;;;;;;;;;;;3.90;99.90;;;;;;5051778;28;19924;-79
2023/03/12 05:15:22;;;;;;;;;;;3.90;99.90;;;;;;5052675;28;19916;-79
2023/03/12 05:17:48;;;;;;;;;;;3.90;1.00;;;;;;5056729;28;19948;-79
2023/03/12 05:20:14;;;;;;;;;;;3.90;1.00;;;;;;5055396;28;20296;-80
2023/03/12 05:22:39;;;;;;;;;;;3.90;1.00;;;;;;5055119;28;19966;-79
2023/03/12 05:25:05;;;;;;;;;;;3.80;1.00;;;;;;5055151;28;20295;-80
2023/03/12 05:27:31;;;;;;;;;;;3.70;1.00;;;;;;5055159;28;19963;-80
2023/03/12 05:29:56;;;;;;;;;;;3.70;1.00;;;;;;5056434;28;19913;-79
2023/03/12 05:32:22;;;;;;;;;;;3.70;1.00;;;;;;5055679;28;19915;-80
2023/03/12 05:34:47;;;;;;;;;;;3.70;1.00;;;;;;5055054;28;20053;-79
2023/03/12 05:37:13;;;;;;;;;;;3.60;1.00;;;;;;5055963;28;19962;-80
2023/03/12 05:39:45;;;;;;;;;;;3.60;1.00;;;;;;5038142;28;19916;-80
2023/03/12 05:42:11;;;;;;;;;;;3.60;1.00;;;;;;5037566;28;19912;-80
2023/03/12 05:44:36;;;;;;;;;;;3.70;1.00;;;;;;5055586;28;19924;-80
2023/03/12 05:47:02;;;;;;;;;;;3.60;1.00;;;;;;5055616;28;19909;-80
2023/03/12 05:49:28;;;;;;;;;;;3.60;1.00;;;;;;5053623;28;20296;-80
2023/03/12 05:51:53;;;;;;;;;;;3.60;1.00;;;;;;5053871;28;19916;-79
2023/03/12 05:54:19;;;;;;;;;;;3.60;1.00;;;;;;5056354;28;19963;-79
2023/03/12 05:56:44;;;;;;;;;;;3.50;1.00;;;;;;5060275;28;20368;-80
2023/03/12 05:59:09;;;;;;;;;;;3.60;1.00;;;;;;5057514;28;19912;-80
2023/03/12 06:01:35;;;;;;;;;;;3.50;1.00;;;;;;5057370;28;19909;-80
2023/03/12 06:04:00;;;;;;;;;;;3.60;1.00;;;;;;5057882;28;19916;-80
2023/03/12 06:06:28;;;;;;;;;;;3.60;1.00;;;;;;5057867;28;19916;-80
2023/03/12 06:08:53;;;;;;;;;;;3.60;1.00;;;;;;5056918;28;19936;-81
2023/03/12 06:11:19;;;;;;;;;;;3.60;1.00;;;;;;5056851;28;19909;-80
2023/03/12 06:13:44;;;;;;;;;;;3.70;1.00;;;;;;5056620;28;20312;-80
2023/03/12 06:16:14;;;;;;;;;;;3.70;1.00;;;;;;5057271;28;19966;-80
2023/03/12 06:18:39;;;;;;;;;;;3.80;1.00;;;;;;5059569;28;19909;-80
2023/03/12 06:21:15;;;;;;;;;;;3.80;1.00;;;;;;5057218;28;19916;-81
2023/03/12 06:23:41;;;;;;;;;;;3.90;1.00;;;;;;5055520;28;19920;-80
2023/03/12 06:26:07;;;;;;;;;;;3.90;1.00;;;;;;5056597;28;19925;-81
2023/03/12 06:28:33;;;;;;;;;;;3.90;1.00;;;;;;5057478;28;19916;-80
2023/03/12 06:30:58;;;;;;;;;;;4.00;1.00;;;;;;5056759;28;20007;-80
2023/03/12 06:33:24;;;;;;;;;;;4.00;1.00;;;;;;5055522;28;19928;-81
2023/03/12 06:35:52;;;;;;;;;;;4.00;1.00;;;;;;5055300;28;19913;-81
2023/03/12 06:38:17;;;;;;;;;;;4.10;1.00;;;;;;5057100;28;19909;-80
2023/03/12 06:40:51;;;;;;;;;;;4.10;1.00;;;;;;5055263;28;19958;-80
2023/03/12 06:43:17;;;;;;;;;;;4.10;1.00;;;;;;5056877;28;19909;-80
2023/03/12 06:45:42;;;;;;;;;;;4.00;1.00;;;;;;5057012;28;19909;-79
2023/03/12 06:48:08;;;;;;;;;;;4.10;1.00;;;;;;5058180;28;19962;-80
2023/03/12 06:50:33;;;;;;;;;;;4.10;1.00;;;;;;5058775;28;20256;-80
2023/03/12 06:52:58;;;;;;;;;;;4.10;1.00;;;;;;5076349;28;19915;-80
2023/03/12 06:55:24;;;;;;;;;;;4.10;1.00;;;;;;5058516;28;19908;-81
2023/03/12 06:57:49;;;;;;;;;;;4.20;1.00;;;;;;5057941;28;19919;-80
2023/03/12 07:00:15;;;;;;;;;;;4.10;1.00;;;;;;5060351;28;19909;-79
2023/03/12 07:02:40;;;;;;;;;;;4.20;1.00;;;;;;5061156;28;19923;-81
2023/03/12 07:05:06;;;;;;;;;;;4.20;1.00;;;;;;5061387;28;19908;-81
2023/03/12 07:07:32;;;;;;;;;;;4.30;1.00;;;;;;5061181;28;19951;-81
2023/03/12 07:09:58;;;;;;;;;;;4.30;1.00;;;;;;5061100;28;19912;-80
2023/03/12 07:12:23;;;;;;;;;;;4.40;1.00;;;;;;5079403;28;19970;-80
2023/03/12 07:14:49;;;;;;;;;;;4.40;1.00;;;;;;5061146;28;19908;-81
2023/03/12 07:17:14;;;;;;;;;;;4.40;1.00;;;;;;5061171;28;20011;-80
2023/03/12 07:19:40;;;;;;;;;;;4.40;1.00;;;;;;5079026;28;19916;-81
2023/03/12 07:22:05;;;;;;;;;;;4.50;99.90;;;;;;5060875;28;19942;-80
2023/03/12 07:24:31;;;;;;;;;;;4.50;99.90;;;;;;5060559;28;19927;-80
2023/03/12 07:26:56;;;;;;;;;;;4.50;99.90;;;;;;5078340;28;20368;-81
2023/03/12 07:29:22;;;;;;;;;;;4.50;99.90;;;;;;5060491;28;19909;-80
2023/03/12 07:31:47;;;;;;;;;;;4.60;99.90;;;;;;5060294;28;20299;-81
2023/03/12 07:34:12;;;;;;;;;;;4.80;99.90;;;;;;5060279;28;19915;-81
2023/03/12 07:36:38;;;;;;;;;;;4.90;99.90;;;;;;5060053;28;19909;-80
2023/03/12 07:39:03;;;;;;;;;;;5.00;99.90;;;;;;5059320;28;19913;-81
2023/03/12 07:41:29;;;;;;;;;;;5.00;99.90;;;;;;5076741;28;20003;-81
2023/03/12 07:43:54;;;;;;;;;;;5.10;99.90;;;;;;5076990;28;20334;-81
2023/03/12 07:46:20;;;;;;;;;;;5.20;99.90;;;;;;5059838;28;20003;-81
2023/03/12 07:48:45;;;;;;;;;;;5.10;99.90;;;;;;5060361;28;19938;-80
2023/03/12 07:51:11;;;;;;;;;;;5.10;99.90;;;;;;5060516;28;19909;-80
2023/03/12 07:53:36;;;;;;;;;;;5.20;99.90;;;;;;5078465;28;19916;-81
2023/03/12 07:56:02;;;;;;;;;;;5.20;99.90;;;;;;5060021;28;20015;-80
2023/03/12 07:58:27;;;;;;;;;;;5.20;99.90;;;;;;5060002;28;19916;-80
2023/03/12 08:00:54;;;;;;;;;;;5.20;99.90;;;;;;5059679;28;20307;-80
2023/03/12 08:03:19;;;;;;;;;;;5.30;99.90;;;;;;5058722;28;20050;-80
2023/03/12 08:05:53;;;;;;;;;;;5.40;99.90;;;;;;5076703;28;20375;-80
2023/03/12 08:08:19;;;;;;;;;;;5.40;99.90;;;;;;5076283;28;19909;-81
2023/03/12 08:10:44;;;;;;;;;;;5.40;99.90;;;;;;5057156;28;19915;-81
2023/03/12 08:13:10;;;;;;;;;;;5.40;99.90;;;;;;5058476;28;19966;-80
2023/03/12 08:15:35;;;;;;;;;;;5.40;99.90;;;;;;5058625;28;20376;-81
2023/03/12 08:18:01;;;;;;;;;;;5.50;99.90;;;;;;5076542;28;19909;-81
2023/03/12 08:20:26;;;;;;;;;;;5.50;99.90;;;;;;5058423;28;19980;-81
2023/03/12 08:22:52;;;;;;;;;;;5.60;99.90;;;;;;5058063;28;19919;-80
2023/03/12 08:25:19;;;;;;;;;;;5.50;99.90;;;;;;5076630;28;19936;-81
2023/03/12 08:27:45;;;;;;;;;;;5.40;99.90;;;;;;5057745;28;19909;-80
2023/03/12 08:30:11;;;;;;;;;;;5.30;99.90;;;;;;5076194;28;19909;-82
2023/03/12 08:32:36;;;;;;;;;;;5.20;99.90;;;;;;5057644;28;20005;-81
2023/03/12 08:35:04;;;;;;;;;;;5.20;99.90;;;;;;5057458;28;19915;-80
2023/03/12 08:37:29;;;;;;;;;;;5.20;99.90;;;;;;5075668;28;20419;-81
2023/03/12 08:39:56;;;;;;;;;;;5.20;99.90;;;;;;5057468;28;19935;-81
2023/03/12 08:42:21;;;;;;;;;;;5.30;99.90;;;;;;5075220;28;19908;-81
2023/03/12 08:44:47;;;;;;;;;;;5.30;99.90;;;;;;5057893;28;19992;-81
2023/03/12 08:47:12;;;;;;;;;;;5.30;99.90;;;;;;5057717;28;20014;-80
2023/03/12 08:49:38;;;;;;;;;;;5.30;99.90;;;;;;5057577;28;19920;-79
2023/03/12 08:52:04;;;;;;;;;;;5.30;99.90;;;;;;5057075;28;20034;-81
2023/03/12 08:54:29;;;;;;;;;;;5.30;99.90;;;;;;5057803;28;19914;-80
2023/03/12 08:56:55;;;;;;;;;;;5.40;99.90;;;;;;5076020;28;20311;-79
2023/03/12 08:59:21;;;;;;;;;;;5.40;99.90;;;;;;5057566;28;20416;-80
2023/03/12 09:01:46;;;;;;;;;;;5.50;99.90;;;;;;5057321;28;19908;-81
2023/03/12 09:04:12;;;;;;;;;;;5.60;99.90;;;;;;5057380;28;20408;-81
2023/03/12 09:06:37;;;;;;;;;;;5.50;99.90;;;;;;5057287;28;20036;-79
2023/03/12 09:09:04;;;;;;;;;;;5.50;99.90;;;;;;5056910;28;19919;-79
2023/03/12 09:11:30;;;;;;;;;;;5.50;99.90;;;;;;5056771;28;20299;-81
2023/03/12 09:13:56;;;;;;;;;;;5.50;99.90;;;;;;5056649;28;19915;-80
2023/03/12 09:16:21;;;;;;;;;;;5.50;99.90;;;;;;5057425;28;19908;-80
2023/03/12 09:18:47;;;;;;;;;;;5.50;99.90;;;;;;5057879;28;19909;-80
2023/03/12 09:21:12;;;;;;;;;;;5.60;99.90;;;;;;5057108;28;19908;-80
2023/03/12 09:23:38;;;;;;;;;;;5.60;99.90;;;;;;5075312;28;19961;-80
2023/03/12 09:26:03;;;;;;;;;;;5.70;99.90;;;;;;5075465;28;19939;-80
2023/03/12 09:28:28;;;;;;;;;;;5.70;99.90;;;;;;5056904;28;19916;-80
2023/03/12 09:30:54;;;;;;;;;;;5.80;99.90;;;;;;5057171;28;19920;-80
2023/03/12 09:33:19;;;;;;;;;;;5.90;99.90;;;;;;5056849;28;20268;-80
2023/03/12 09:35:54;;;;;;;;;;;6.00;99.90;;;;;;5057125;28;19942;-80
2023/03/12 09:38:19;;;;;;;;;;;6.00;99.90;;;;;;5075871;28;19908;-80
2023/03/12 09:40:46;;;;;;;;;;;6.10;99.90;;;;;;5074798;28;19960;-80
2023/03/12 09:43:21;;;;;;;;;;;6.10;99.90;;;;;;5074890;28;19913;-80
2023/03/12 09:45:47;;;;;;;;;;;6.00;99.90;;;;;;5075055;28;19934;-80
2023/03/12 09:48:19;;;;;;;;;;;6.00;99.90;;;;;;5075365;28;19916;-80
2023/03/12 09:50:46;;;;;;;;;;;6.10;99.90;;;;;;5074731;28;20000;-80
2023/03/12 09:53:30;;;;;;;;;;;6.20;99.90;;;;;;5056303;28;19909;-80
2023/03/12 09:55:57;;;;;;;;;;;6.20;99.90;;;;;;5074730;28;19968;-80
2023/03/12 09:58:27;;;;;;;;;;;6.20;99.90;;;;;;5074632;28;19916;-80
2023/03/12 10:00:58;;;;;;;;;;;6.30;99.90;;;;;;5056635;28;19974;-80
2023/03/12 10:03:36;;;;;;;;;;;6.40;99.90;;;;;;5057012;28;19919;-80
2023/03/12 10:06:02;;;;;;;;;;;6.40;99.90;;;;;;5056421;28;20294;-81
2023/03/12 10:08:32;;;;;;;;;;;6.50;99.90;;;;;;5056402;28;19923;-81
2023/03/12 10:11:09;;;;;;;;;;;6.60;99.90;;;;;;5056436;28;19913;-80
2023/03/12 10:13:42;;;;;;;;;;;6.60;99.90;;;;;;5075427;28;19908;-80
2023/03/12 10:16:11;;;;;;;;;;;6.80;99.90;;;;;;5056328;28;20645;-80
2023/03/12 10:18:45;;;;;;;;;;;6.80;99.90;;;;;;5055858;28;20321;-80
2023/03/12 10:21:17;;;;;;;;;;;6.80;99.90;;;;;;5054987;28;19916;-80
2023/03/12 10:24:01;;;;;;;;;;;6.80;99.90;;;;;;5055788;28;20328;-80
2023/03/12 10:26:38;;;;;;;;;;;6.70;99.90;;;;;;5055995;28;20372;-81
2023/03/12 10:29:16;;;;;;;;;;;6.80;99.90;;;;;;5056541;28;19940;-80
2023/03/12 10:31:47;;;;;;;;;;;6.90;99.90;;;;;;5055491;28;19916;-80
2023/03/12 10:34:19;;;;;;;;;;;7.00;99.90;;;;;;5056838;28;20013;-80
2023/03/12 10:36:45;;;;;;;;;;;7.00;99.90;;;;;;5059707;28;19931;-81
2023/03/12 10:39:18;;;;;;;;;;;7.10;99.90;;;;;;5077997;28;20364;-80
2023/03/12 10:41:45;;;;;;;;;;;7.20;99.90;;;;;;5059364;28;20394;-80
2023/03/12 10:44:15;;;;;;;;;;;7.40;99.90;;;;;;5077858;28;19951;-81
2023/03/12 10:46:50;;;;;;;;;;;7.50;99.90;;;;;;5077151;28;19962;-80
2023/03/12 10:49:22;;;;;;;;;;;7.70;99.90;;;;;;5058802;28;19917;-80
2023/03/12 10:51:58;;;;;;;;;;;7.80;99.90;;;;;;5077156;28;19908;-80
2023/03/12 10:54:29;;;;;;;;;;;8.00;99.90;;;;;;5059614;28;19944;-81
2023/03/12 10:56:54;;;;;;;;;;;8.10;99.90;;;;;;5058883;28;19908;-80
2023/03/12 10:59:21;;;;;;;;;;;8.20;99.90;;;;;;5058621;28;20007;-81
2023/03/12 11:01:48;;;;;;;;;;;8.20;99.90;;;;;;5058313;28;19987;-80
2023/03/12 11:04:40;;;;;;;;;;;8.20;99.90;;;;;;5058760;28;19974;-80
2023/03/12 11:07:12;;;;;;;;;;;8.30;99.90;;;;;;5054775;28;19908;-81
2023/03/12 11:09:37;;;;;;;;;;;8.50;99.90;;;;;;5058575;28;19999;-80
2023/03/12 11:12:21;;;;;;;;;;;8.60;99.90;;;;;;5058333;28;19967;-80
2023/03/12 11:14:46;;;;;;;;;;;8.70;99.90;;;;;;5058800;28;19966;-80
2023/03/12 11:17:20;;;;;;;;;;;8.90;99.90;;;;;;5076334;28;20414;-80
2023/03/12 11:19:45;;;;;;;;;;;9.10;99.90;;;;;;5076813;28;19973;-80
2023/03/12 11:22:14;;;;;;;;;;;9.30;99.90;;;;;;5057999;28;19908;-80
2023/03/12 11:24:53;;;;;;;;;;;9.40;99.90;;;;;;5058269;28;19916;-81
2023/03/12 11:27:37;;;;;;;;;;;9.50;99.90;;;;;;5058181;28;19938;-80
2023/03/12 11:30:05;;;;;;;;;;;9.60;99.90;;;;;;5058132;28;19947;-80
2023/03/12 11:32:36;;;;;;;;;;;9.70;99.90;;;;;;5058219;28;19920;-80
2023/03/12 11:35:03;;;;;;;;;;;10.00;99.90;;;;;;5057771;28;19908;-81
2023/03/12 11:37:37;;;;;;;;;;;10.10;99.90;;;;;;5076356;28;20261;-81
2023/03/12 11:40:22;;;;;;;;;;;10.30;99.90;;;;;;5057592;28;19958;-81
2023/03/12 11:42:47;;;;;;;;;;;10.30;99.90;;;;;;5057674;28;19916;-80
2023/03/12 11:45:15;;;;;;;;;;;10.50;99.90;;;;;;5072083;28;19966;-81
2023/03/12 11:47:47;;;;;;;;;;;10.50;99.90;;;;;;5038707;28;19915;-81
2023/03/12 11:50:18;;;;;;;;;;;10.60;99.90;;;;;;5070479;28;19915;-80
2023/03/12 11:52:55;;;;;;;;;;;10.60;99.90;;;;;;5063084;28;19909;-81
2023/03/12 11:55:26;;;;;;;;;;;10.60;99.90;;;;;;5056240;28;20054;-81
2023/03/12 11:58:15;;;;;;;;;;;10.90;99.90;;;;;;5037371;28;19908;-81
2023/03/12 12:00:53;;;;;;;;;;;11.10;99.90;;;;;;5038987;28;19970;-81
2023/03/12 12:03:28;;;;;;;;;;;11.20;99.90;;;;;;5039426;28;19912;-81
2023/03/12 12:06:12;;;;;;;;;;;11.30;99.90;;;;;;5054343;28;19916;-80
2023/03/12 12:08:51;;;;;;;;;;;11.60;99.90;;;;;;5036267;28;19991;-79
2023/03/12 12:11:36;;;;;;;;;;;12.20;99.90;;;;;;5052486;28;20279;-80
2023/03/12 12:14:02;;;;;;;;;;;12.70;99.90;;;;;;5003222;28;20288;-79
2023/03/12 12:16:38;;;;;;;;;;;13.30;99.90;;;;;;5035823;28;19909;-82
2023/03/12 12:19:07;;;;;;;;;;;13.60;99.90;;;;;;5052556;28;19913;-82
2023/03/12 12:21:41;;;;;;;;;;;14.30;99.90;;;;;;5035699;28;19909;-80
2023/03/12 12:24:13;;;;;;;;;;;14.50;99.90;;;;;;5053767;28;19912;-79
2023/03/12 12:26:46;;;;;;;;;;;14.60;99.90;;;;;;5046634;28;20335;-80
2023/03/12 12:29:17;;;;;;;;;;;14.60;99.90;;;;;;5054333;28;19979;-81
2023/03/12 12:31:52;;;;;;;;;;;14.70;99.90;;;;;;5055372;28;19947;-81
2023/03/12 12:34:17;;;;;;;;;;;14.50;99.90;;;;;;5055785;28;19999;-81
2023/03/12 12:36:46;;;;;;;;;;;14.30;99.90;;;;;;5055791;28;19974;-82
2023/03/12 12:39:16;;;;;;;;;;;14.10;99.90;;;;;;5073193;28;19916;-80
2023/03/12 12:41:48;;;;;;;;;;;13.90;99.90;;;;;;5072582;28;19908;-81
2023/03/12 12:44:16;;;;;;;;;;;13.80;99.90;;;;;;5073211;28;19912;-82
2023/03/12 12:46:45;;;;;;;;;;;13.60;99.90;;;;;;5055476;28;20384;-82
2023/03/12 12:58:03;;;;;;;;;;;16.40;99.90;;;;;;5030506;28;19909;-81
2023/03/12 13:04:07;;;;;;;;;;;18.40;99.90;;;;;;5033090;28;19950;-82
2023/03/12 13:06:52;;;;;;;;;;;18.10;99.90;;;;;;5015392;28;19916;-81
2023/03/12 13:17:05;;;;;;;;;;;15.70;99.90;;;;;;5057257;28;19978;-81
2023/03/12 13:19:37;;;;;;;;;;;15.50;99.90;;;;;;5055102;28;19935;-81
2023/03/12 13:22:02;;;;;;;;;;;15.10;99.90;;;;;;5054674;28;19912;-81
2023/03/12 13:24:40;;;;;;;;;;;14.90;99.90;;;;;;5072992;28;20330;-80
2023/03/12 13:27:06;;;;;;;;;;;14.70;99.90;;;;;;5055444;28;20433;-80
2023/03/12 13:29:31;;;;;;;;;;;14.80;99.90;;;;;;5072985;28;19909;-80
2023/03/12 13:31:57;;;;;;;;;;;14.70;99.90;;;;;;5072159;28;19999;-81
2023/03/12 13:34:23;;;;;;;;;;;14.30;99.90;;;;;;5072800;28;19917;-80
2023/03/12 13:36:52;;;;;;;;;;;14.30;99.90;;;;;;5072839;28;19989;-80
2023/03/12 13:39:26;;;;;;;;;;;14.00;99.90;;;;;;5054719;28;19916;-80
2023/03/12 13:41:55;;;;;;;;;;;13.90;99.90;;;;;;5053841;28;19909;-80
2023/03/12 13:44:24;;;;;;;;;;;13.90;99.90;;;;;;5047663;28;19920;-85
2023/03/12 13:46:55;;;;;;;;;;;13.80;99.90;;;;;;5035086;28;20334;-80
2023/03/12 13:49:20;;;;;;;;;;;13.70;99.90;;;;;;5034485;28;20010;-81
2023/03/12 13:51:54;;;;;;;;;;;13.60;99.90;;;;;;5050937;28;20407;-81
2023/03/12 13:54:22;;;;;;;;;;;13.50;99.90;;;;;;5052172;28;19919;-81
2023/03/12 13:57:13;;;;;;;;;;;13.60;99.90;;;;;;5052384;28;19948;-82
2023/03/12 13:59:43;;;;;;;;;;;13.60;99.90;;;;;;5049238;28;19909;-82
2023/03/12 14:02:19;;;;;;;;;;;13.90;99.90;;;;;;5044068;28;19937;-82
2023/03/12 14:04:44;;;;;;;;;;;14.00;99.90;;;;;;5034535;28;20284;-82
2023/03/12 14:07:22;;;;;;;;;;;14.10;99.90;;;;;;5052472;28;19919;-82
2023/03/12 14:09:55;;;;;;;;;;;14.30;99.90;;;;;;5054294;28;20022;-82
2023/03/12 14:12:41;;;;;;;;;;;14.40;99.90;;;;;;5038393;28;19959;-82
2023/03/12 14:15:26;;;;;;;;;;;14.30;99.90;;;;;;5056226;28;19952;-82
2023/03/12 14:17:57;;;;;;;;;;;14.30;99.90;;;;;;5038402;28;19908;-82
2023/03/12 14:20:23;;;;;;;;;;;14.20;99.90;;;;;;5056075;28;19916;-82
2023/03/12 14:22:51;;;;;;;;;;;14.20;99.90;;;;;;5038148;28;20322;-82
2023/03/12 14:25:22;;;;;;;;;;;14.10;99.90;;;;;;5056192;28;19909;-82
2023/03/12 14:27:48;;;;;;;;;;;14.10;99.90;;;;;;5056361;28;19908;-82
2023/03/12 14:30:13;;;;;;;;;;;14.10;99.90;;;;;;5056105;28;20428;-82
2023/03/12 14:32:39;;;;;;;;;;;14.00;99.90;;;;;;5055641;28;19909;-82
2023/03/12 14:35:24;;;;;;;;;;;13.80;99.90;;;;;;5054574;28;20007;-82
2023/03/12 14:38:10;;;;;;;;;;;13.80;99.90;;;;;;5038004;28;19999;-82
2023/03/12 14:40:44;;;;;;;;;;;13.80;99.90;;;;;;5037770;28;19913;-82
2023/03/12 14:43:19;;;;;;;;;;;13.80;99.90;;;;;;5055500;28;20376;-81
2023/03/12 14:45:44;;;;;;;;;;;13.80;99.90;;;;;;5055923;28;19991;-81
2023/03/12 14:48:10;;;;;;;;;;;13.70;99.90;;;;;;5056319;28;19971;-81
2023/03/12 14:50:37;;;;;;;;;;;13.80;99.90;;;;;;5055477;28;19909;-82
2023/03/12 14:53:16;;;;;;;;;;;13.90;99.90;;;;;;5037423;28;20007;-82
2023/03/12 14:55:41;;;;;;;;;;;13.90;99.90;;;;;;5037769;28;20315;-82
2023/03/12 14:58:15;;;;;;;;;;;14.00;99.90;;;;;;5037569;28;19944;-82